Campanya meteocatpedra

Dades de l'estació automàtica els Alamús

?
?
Resum diari 20:30 TU
Dades diàries de l'estació meteorològica
Temperatura mitjana 24.4 °C
Temperatura màxima 32.6 °C 15:06 TU
Temperatura mínima 16.5 °C 4:06 TU
Humitat relativa mitjana 60%
Precipitació acumulada 0.0 mm
Ratxa màxima del vent (2 m) 16.9 km/h - 212º 17:37 TU

El tram horari està expressat en Temps Universal (TU). Cal sumar una hora en horari d'hivern i dues en horari d'estiu per passar a l'hora oficial.

els Alamús

Metadades estació meteorol´gica
Municipi Els Alamús
Comarca Segrià
Altitud 235 m
Data alta 22.06.2011
Estat actual Operativa
Dades de període
Període
TU
TM
°C
TX
°C
TN
°C
HRM
%
PPT
mm
VVM (2 m)
km/h
DVM (2 m)
graus
VVX (2 m)
km/h
00:00 - 00:30 18.3 18.4 18.2 86 0.0 1.8 53 4.3
00:30 - 01:00 18.4 18.5 18.2 88 0.0 2.9 78 6.1
01:00 - 01:30 18.0 18.2 17.6 90 0.0 1.8 126 4.0
01:30 - 02:00 17.3 17.6 16.9 92 0.0 0.7 146 3.6
02:00 - 02:30 17.3 18.0 16.8 91 0.0 1.1 176 3.6
02:30 - 03:00 17.9 18.1 17.5 85 0.0 1.4 201 4.0
03:00 - 03:30 17.2 17.5 16.9 88 0.0 1.4 186 5.0
03:30 - 04:00 16.9 17.4 16.5 90 0.0 1.1 160 3.2
04:00 - 04:30 16.9 17.2 16.5 88 0.0 1.4 187 5.8
04:30 - 05:00 17.0 17.2 16.9 87 0.0 1.1 198 2.9
05:00 - 05:30 18.0 18.9 17.2 84 0.0 1.4 198 3.2
05:30 - 06:00 19.7 20.1 19.0 77 0.0 2.2 200 7.6
06:00 - 06:30 20.6 21.0 20.1 71 0.0 4.0 214 10.8
06:30 - 07:00 21.3 21.8 21.0 67 0.0 4.3 234 9.4
07:00 - 07:30 22.4 22.9 21.7 63 0.0 3.6 194 9.0
07:30 - 08:00 22.9 23.5 22.6 59 0.0 3.2 223 9.0
08:00 - 08:30 24.1 24.8 23.3 56 0.0 2.5 174 11.2
08:30 - 09:00 24.4 25.1 23.9 54 0.0 2.9 223 10.1
09:00 - 09:30 25.2 26.4 24.6 52 0.0 2.9 234 10.1
09:30 - 10:00 26.1 26.4 25.8 49 0.0 3.6 221 10.4
10:00 - 10:30 26.8 27.5 26.2 46 0.0 4.0 198 13.7
10:30 - 11:00 27.9 28.6 27.2 44 0.0 4.0 277 12.2
11:00 - 11:30 28.4 28.9 28.0 42 0.0 4.3 290 11.9
11:30 - 12:00 29.1 29.5 28.8 39 0.0 4.7 255 13.3
12:00 - 12:30 29.6 30.0 29.3 37 0.0 3.6 267 13.3
12:30 - 13:00 29.9 30.7 29.4 36 0.0 5.0 281 14.0
13:00 - 13:30 30.3 31.1 29.8 35 0.0 5.4 283 14.8
13:30 - 14:00 30.9 31.4 30.5 34 0.0 5.4 276 15.1
14:00 - 14:30 31.6 32.0 31.1 33 0.0 4.7 269 15.1
14:30 - 15:00 31.7 32.0 31.4 32 0.0 5.0 274 15.1
15:00 - 15:30 32.1 32.6 31.8 29 0.0 5.4 256 15.1
15:30 - 16:00 32.2 32.6 31.9 29 0.0 4.7 281 12.6
16:00 - 16:30 31.5 32.5 30.6 40 0.0 5.0 205 16.2
16:30 - 17:00 31.0 31.6 30.3 44 0.0 4.7 214 15.8
17:00 - 17:30 29.5 30.2 28.7 48 0.0 5.8 194 15.8
17:30 - 18:00 28.2 28.7 27.5 51 0.0 5.0 190 16.9
18:00 - 18:30 27.3 27.4 27.0 55 0.0 3.6 182 11.2
18:30 - 19:00 26.5 27.0 25.9 57 0.0 2.9 174 10.1
19:00 - 19:30 24.9 25.8 23.8 64 0.0 4.0 101 9.7
19:30 - 20:00 23.0 23.7 22.3 71 0.0 4.7 99 9.0
20:00 - 20:30 21.8 22.2 21.3 75 0.0 4.0 85 7.9
20:30 - 21:00 21.1 21.2 21.0 76 0.0 5.8 80 12.2

Les dades en taronja només han passat un control de qualitat automàtic. Resta pendent la seva validació definitiva.